createdAt,value
2018-12-11T00:01:05.631Z,91.66
2018-12-11T00:04:09.141Z,91.81
2018-12-11T00:07:12.267Z,93.38
2018-12-11T00:10:15.735Z,95.30
2018-12-11T00:13:19.177Z,95.14
2018-12-11T00:16:22.691Z,94.80
2018-12-11T00:19:26.708Z,94.72
2018-12-11T00:22:30.173Z,93.77
2018-12-11T00:25:33.596Z,92.63
2018-12-11T00:28:37.240Z,92.03
2018-12-11T00:31:40.791Z,92.80
2018-12-11T00:34:44.246Z,93.12
2018-12-11T00:37:47.758Z,92.12
2018-12-11T00:40:51.262Z,91.77
2018-12-11T00:43:54.854Z,92.13
2018-12-11T00:46:58.582Z,91.06
2018-12-11T00:50:02.060Z,91.58
2018-12-11T00:53:05.692Z,91.97
2018-12-11T00:56:09.172Z,91.84
2018-12-11T00:59:12.831Z,92.12
2018-12-11T01:02:16.460Z,91.02
2018-12-11T01:05:19.975Z,91.06
2018-12-11T01:08:23.700Z,90.87
2018-12-11T01:11:27.157Z,91.06
2018-12-11T01:14:30.632Z,91.25
2018-12-11T01:17:34.207Z,90.71
2018-12-11T01:20:37.682Z,89.96
2018-12-11T01:23:41.289Z,89.82
2018-12-11T01:26:44.823Z,90.36
2018-12-11T01:29:48.278Z,88.36
2018-12-11T01:32:51.732Z,88.39
2018-12-11T01:35:55.276Z,90.68
2018-12-11T01:38:58.716Z,93.58
2018-12-11T01:42:02.159Z,94.90
2018-12-11T01:45:06.670Z,96.42
2018-12-11T01:48:10.211Z,94.77
2018-12-11T01:51:13.738Z,94.60
2018-12-11T01:54:17.200Z,94.45
2018-12-11T01:57:20.761Z,93.49
2018-12-11T02:00:24.685Z,94.26
2018-12-11T02:03:28.237Z,93.60
2018-12-11T02:06:32.411Z,93.96
2018-12-11T02:09:36.029Z,94.18
2018-12-11T02:12:39.472Z,92.85
2018-12-11T02:15:44.389Z,92.46
2018-12-11T02:18:47.866Z,92.28
2018-12-11T02:21:51.373Z,92.07
2018-12-11T02:24:54.917Z,92.22
2018-12-11T02:27:58.443Z,93.22
2018-12-11T02:31:01.979Z,93.09
2018-12-11T02:34:06.053Z,92.71
2018-12-11T02:37:09.569Z,92.59
2018-12-11T02:40:13.142Z,92.71
2018-12-11T02:43:16.631Z,92.62
2018-12-11T02:46:20.200Z,92.59
2018-12-11T02:49:23.737Z,92.61
2018-12-11T02:52:27.797Z,92.83
2018-12-11T02:55:31.197Z,93.15
2018-12-11T02:58:34.766Z,93.76
2018-12-11T03:01:38.282Z,94.17
2018-12-11T03:04:41.817Z,94.79
2018-12-11T03:07:45.272Z,95.02
2018-12-11T03:10:48.788Z,94.77
2018-12-11T03:13:52.240Z,95.09
2018-12-11T03:16:55.702Z,95.67
2018-12-11T03:19:59.236Z,95.57
2018-12-11T03:23:02.728Z,95.41
2018-12-11T03:26:06.368Z,94.99
2018-12-11T03:29:09.906Z,95.11
2018-12-11T03:32:13.562Z,94.85
2018-12-11T03:35:17.043Z,94.63
2018-12-11T03:38:20.584Z,94.89
2018-12-11T03:41:24.086Z,94.84
2018-12-11T03:44:27.773Z,94.67
2018-12-11T03:47:31.377Z,94.73
2018-12-11T03:50:34.848Z,93.96
2018-12-11T03:53:38.428Z,92.93
2018-12-11T03:56:41.948Z,93.41
2018-12-11T03:59:45.452Z,93.78
2018-12-11T04:02:48.898Z,94.29
2018-12-11T04:05:52.469Z,94.26
2018-12-11T04:08:56.013Z,94.84
2018-12-11T04:11:59.596Z,94.16
2018-12-11T04:15:03.187Z,94.61
2018-12-11T04:18:06.653Z,95.46
2018-12-11T04:21:10.140Z,94.73
2018-12-11T04:24:13.604Z,94.83
2018-12-11T04:27:17.053Z,94.74
2018-12-11T04:30:20.654Z,93.86
2018-12-11T04:33:24.336Z,93.82
2018-12-11T04:36:27.991Z,93.45
2018-12-11T04:39:34.013Z,93.41
2018-12-11T04:42:37.046Z,93.64
2018-12-11T04:45:40.529Z,94.23
2018-12-11T04:48:44.033Z,94.09
2018-12-11T04:51:47.521Z,93.92
2018-12-11T04:54:51.185Z,94.35
2018-12-11T04:57:54.632Z,94.88
2018-12-11T05:00:58.228Z,95.07
2018-12-11T05:04:01.819Z,94.67
2018-12-11T05:07:05.233Z,95.72
2018-12-11T05:10:09.238Z,95.17
2018-12-11T05:13:12.827Z,94.94
2018-12-11T05:16:16.438Z,94.55
2018-12-11T05:19:19.922Z,94.64
2018-12-11T05:22:23.556Z,95.16
2018-12-11T05:31:00.434Z,93.96
2018-12-11T05:34:03.931Z,93.35
2018-12-11T05:37:07.787Z,92.97
2018-12-11T05:40:11.437Z,91.58
2018-12-11T05:43:14.970Z,91.96
2018-12-11T05:46:18.433Z,92.26
2018-12-11T05:49:21.997Z,92.38
2018-12-11T05:52:25.552Z,93.12
2018-12-11T05:55:28.992Z,93.15
2018-12-11T05:58:32.467Z,93.46
2018-12-11T06:01:36.041Z,92.89
2018-12-11T06:04:39.546Z,93.46
2018-12-11T06:07:43.206Z,92.22
2018-12-11T06:10:46.807Z,92.32
2018-12-11T06:13:50.278Z,91.83
2018-12-11T06:16:53.800Z,91.10
2018-12-11T06:19:58.117Z,91.28
2018-12-11T06:23:01.595Z,91.48
2018-12-11T06:26:05.109Z,91.93
2018-12-11T06:29:08.649Z,91.77
2018-12-11T06:32:12.234Z,92.26
2018-12-11T06:35:15.903Z,92.77
2018-12-11T06:38:19.400Z,94.29
2018-12-11T06:41:22.971Z,96.50
2018-12-11T06:49:59.774Z,98.84
2018-12-11T06:53:03.260Z,99.70
2018-12-11T06:56:06.836Z,99.37
2018-12-11T06:59:10.486Z,100.03
2018-12-11T07:02:14.380Z,99.27
2018-12-11T07:05:19.117Z,98.82
2018-12-11T07:08:22.810Z,99.13
2018-12-11T07:11:27.246Z,99.84
2018-12-11T07:14:30.720Z,100.43
2018-12-11T07:17:34.229Z,101.28
2018-12-11T07:20:37.688Z,100.75
2018-12-11T07:23:41.150Z,99.81
2018-12-11T07:26:44.624Z,99.83
2018-12-11T07:29:48.151Z,99.46
2018-12-11T07:32:51.618Z,99.16
2018-12-11T07:35:55.094Z,98.46
2018-12-11T07:38:58.604Z,98.37
2018-12-11T07:42:02.069Z,98.12
2018-12-11T07:45:05.922Z,97.79
2018-12-11T07:48:09.455Z,98.23
2018-12-11T07:51:12.918Z,98.17
2018-12-11T07:54:16.339Z,98.05
2018-12-11T07:57:19.899Z,98.55
2018-12-11T08:00:23.575Z,98.40
2018-12-11T08:03:27.204Z,97.98
2018-12-11T08:06:30.705Z,97.21
2018-12-11T08:09:34.249Z,97.12
2018-12-11T08:12:37.751Z,97.71
2018-12-11T08:15:41.275Z,97.30
2018-12-11T08:18:44.738Z,96.99
2018-12-11T08:21:48.194Z,96.49
2018-12-11T08:24:51.667Z,95.88
2018-12-11T08:27:55.130Z,96.53
2018-12-11T08:30:58.689Z,96.39
2018-12-11T08:34:02.094Z,96.70
2018-12-11T08:37:05.604Z,96.42
2018-12-11T08:40:09.037Z,96.34
2018-12-11T08:43:19.092Z,96.34
2018-12-11T08:46:22.673Z,96.38
2018-12-11T08:49:26.112Z,96.10
2018-12-11T08:52:29.759Z,95.97
2018-12-11T08:55:33.354Z,95.99
2018-12-11T08:58:36.823Z,95.47
2018-12-11T09:01:40.324Z,95.30
2018-12-11T09:04:43.828Z,95.61
2018-12-11T09:07:47.318Z,94.98
2018-12-11T09:10:50.878Z,94.71
2018-12-11T09:13:54.541Z,94.73
2018-12-11T09:16:58.534Z,94.65
2018-12-11T09:20:02.020Z,94.82
2018-12-11T09:23:05.587Z,95.31
2018-12-11T09:26:09.071Z,95.81
2018-12-11T09:29:12.558Z,95.35
2018-12-11T09:32:16.333Z,95.41
2018-12-11T09:35:19.923Z,95.17
2018-12-11T09:38:23.403Z,94.94
2018-12-11T09:41:27.374Z,94.24
2018-12-11T09:44:30.914Z,94.48
2018-12-11T09:47:34.468Z,95.28
2018-12-11T09:50:38.121Z,95.37
2018-12-11T09:53:41.663Z,95.86
2018-12-11T09:56:45.122Z,95.71
2018-12-11T09:59:48.622Z,95.57
2018-12-11T10:02:52.134Z,95.57
2018-12-11T10:05:55.679Z,95.57
2018-12-11T10:09:05.539Z,96.34
2018-12-11T10:12:09.070Z,96.30
2018-12-11T10:15:12.561Z,96.27
2018-12-11T10:18:16.067Z,96.30
2018-12-11T10:21:19.484Z,96.18
2018-12-11T10:24:25.064Z,96.11
2018-12-11T10:27:28.762Z,96.47
2018-12-11T10:30:37.688Z,96.63
2018-12-11T10:33:41.152Z,97.27
2018-12-11T10:36:44.626Z,96.82
2018-12-11T10:39:48.219Z,97.13
2018-12-11T10:42:51.717Z,97.28
2018-12-11T10:45:55.399Z,97.38
2018-12-11T10:48:58.863Z,97.44
2018-12-11T10:52:02.358Z,97.73
2018-12-11T10:55:06.097Z,98.08
2018-12-11T10:58:09.708Z,97.38
2018-12-11T11:01:18.935Z,97.54
2018-12-11T11:04:23.318Z,97.01
2018-12-11T11:07:27.340Z,97.27
2018-12-11T11:10:31.127Z,97.08
2018-12-11T11:13:34.927Z,97.02
2018-12-11T11:16:38.448Z,96.76
2018-12-11T11:19:42.038Z,97.01
2018-12-11T11:22:45.529Z,96.50
2018-12-11T11:25:49.143Z,96.76
2018-12-11T11:28:52.788Z,97.12
2018-12-11T11:31:56.457Z,96.85
2018-12-11T11:34:59.982Z,96.97
2018-12-11T11:38:03.438Z,97.01
2018-12-11T11:41:06.905Z,97.07
2018-12-11T11:44:10.425Z,96.69
2018-12-11T11:47:14.057Z,96.77
2018-12-11T11:50:23.897Z,96.77
2018-12-11T11:53:27.462Z,96.82
2018-12-11T11:56:30.921Z,96.79
2018-12-11T11:59:34.450Z,97.41
2018-12-11T12:02:38.003Z,97.22
2018-12-11T12:05:41.518Z,97.54
2018-12-11T12:08:45.059Z,96.47
2018-12-11T12:11:48.569Z,96.78
2018-12-11T12:14:51.995Z,96.83
2018-12-11T12:17:55.474Z,96.90
2018-12-11T12:20:58.957Z,96.48
2018-12-11T12:24:02.419Z,96.69
2018-12-11T12:27:05.982Z,96.16
2018-12-11T12:30:16.095Z,96.05
2018-12-11T12:33:19.559Z,96.17
2018-12-11T12:36:23.103Z,96.63
2018-12-11T12:39:27.362Z,96.05
2018-12-11T12:42:30.904Z,95.82
2018-12-11T12:45:34.361Z,95.73
2018-12-11T12:48:37.868Z,95.60
2018-12-11T12:51:41.365Z,95.35
2018-12-11T12:54:45.349Z,95.49
2018-12-11T12:57:48.814Z,95.38
2018-12-11T13:00:53.062Z,94.99
2018-12-11T13:03:56.567Z,95.26
2018-12-11T13:07:00.282Z,95.85
2018-12-11T13:10:03.879Z,96.16
2018-12-11T13:13:07.502Z,95.57
2018-12-11T13:16:11.023Z,95.89
2018-12-11T13:19:14.523Z,96.28
2018-12-11T13:22:18.116Z,96.73
2018-12-11T13:25:21.562Z,96.68
2018-12-11T13:28:25.098Z,96.01
2018-12-11T13:31:29.045Z,96.14
2018-12-11T13:34:32.542Z,96.89
2018-12-11T13:37:36.334Z,96.47
2018-12-11T13:40:40.280Z,95.73
2018-12-11T13:43:43.797Z,95.65
2018-12-11T13:46:47.609Z,95.64
2018-12-11T13:49:51.117Z,95.70
2018-12-11T13:52:54.646Z,95.15
2018-12-11T13:55:59.036Z,93.96
2018-12-11T13:59:02.636Z,93.92
2018-12-11T14:02:06.077Z,94.09
2018-12-11T14:05:09.536Z,94.07
2018-12-11T14:08:13.192Z,94.51
2018-12-11T14:11:16.711Z,93.51
2018-12-11T14:14:20.187Z,94.25
2018-12-11T14:17:23.874Z,94.56
2018-12-11T14:20:27.692Z,95.05
2018-12-11T14:23:31.263Z,94.63
2018-12-11T14:26:34.826Z,95.28
2018-12-11T14:29:38.340Z,95.34
2018-12-11T14:32:41.809Z,95.56
2018-12-11T14:35:45.441Z,96.73
2018-12-11T14:38:48.963Z,96.13
2018-12-11T14:41:52.442Z,96.15
2018-12-11T14:44:56.052Z,96.53
2018-12-11T14:47:59.512Z,96.73
2018-12-11T14:51:03.557Z,97.04
2018-12-11T14:54:07.141Z,97.48
2018-12-11T14:57:10.803Z,97.72
2018-12-11T15:00:14.348Z,97.91
2018-12-11T15:03:17.858Z,97.63
2018-12-11T15:06:21.397Z,97.40
2018-12-11T15:09:29.971Z,97.69
2018-12-11T15:12:33.613Z,97.89
2018-12-11T15:15:37.060Z,98.31
2018-12-11T15:18:40.656Z,98.09
2018-12-11T15:21:44.231Z,98.29
2018-12-11T15:24:47.768Z,98.31
2018-12-11T15:27:51.203Z,98.71
2018-12-11T15:31:05.892Z,99.09
2018-12-11T15:34:09.343Z,99.35
2018-12-11T15:37:12.928Z,99.68
2018-12-11T15:40:16.446Z,100.40
2018-12-11T15:43:20.083Z,100.89
2018-12-11T15:46:23.801Z,101.56
2018-12-11T15:49:27.723Z,101.69
2018-12-11T15:52:31.240Z,101.82
2018-12-11T15:55:34.790Z,101.85
2018-12-11T15:58:38.416Z,101.98
2018-12-11T16:01:42.049Z,102.34
2018-12-11T16:04:45.741Z,102.78
2018-12-11T16:07:49.212Z,102.81
2018-12-11T16:10:52.795Z,103.06
2018-12-11T16:13:57.460Z,103.76
2018-12-11T16:17:01.100Z,103.69
2018-12-11T16:20:05.152Z,104.25
2018-12-11T16:23:08.826Z,103.94
2018-12-11T16:26:12.472Z,103.92
2018-12-11T16:29:16.035Z,103.64
2018-12-11T16:32:19.607Z,104.12
2018-12-11T16:35:23.307Z,104.26
2018-12-11T16:38:28.011Z,103.65
2018-12-11T16:41:31.680Z,103.39
2018-12-11T16:44:35.234Z,103.19
2018-12-11T16:47:38.807Z,103.58
2018-12-11T16:50:42.362Z,104.11
2018-12-11T16:53:45.890Z,104.21
2018-12-11T16:56:49.346Z,104.90
2018-12-11T16:59:52.997Z,105.03
2018-12-11T17:02:56.488Z,105.14
2018-12-11T17:06:00.098Z,105.00
2018-12-11T17:09:05.081Z,104.63
2018-12-11T17:12:08.837Z,104.56
2018-12-11T17:15:17.429Z,104.30
2018-12-11T17:18:20.964Z,103.84
2018-12-11T17:21:24.541Z,103.57
2018-12-11T17:24:28.037Z,102.79
2018-12-11T17:27:31.574Z,101.92
2018-12-11T17:30:35.010Z,99.37
2018-12-11T17:33:38.563Z,97.60
2018-12-11T17:36:42.122Z,95.81
2018-12-11T17:39:45.777Z,94.97
2018-12-11T17:42:49.297Z,94.38
2018-12-11T17:45:52.968Z,93.90
2018-12-11T17:48:56.564Z,94.05
2018-12-11T17:52:00.233Z,93.80
2018-12-11T17:55:03.797Z,92.69
2018-12-11T17:58:07.820Z,92.83
2018-12-11T18:01:11.326Z,93.07
2018-12-11T18:04:14.882Z,93.74
2018-12-11T18:07:18.563Z,94.28
2018-12-11T18:10:23.319Z,94.48
2018-12-11T18:13:27.944Z,94.10
2018-12-11T18:16:31.540Z,93.53
2018-12-11T18:19:35.078Z,93.56
2018-12-11T18:22:38.558Z,93.31
2018-12-11T18:25:42.079Z,94.35
2018-12-11T18:28:45.578Z,94.41
2018-12-11T18:31:49.304Z,94.77
2018-12-11T18:34:53.744Z,95.14
2018-12-11T18:38:00.293Z,95.76
2018-12-11T18:41:03.851Z,95.96
2018-12-11T18:44:07.374Z,95.24
2018-12-11T18:47:11.038Z,95.38
2018-12-11T18:50:21.222Z,95.83
2018-12-11T18:53:20.533Z,96.21
2018-12-11T18:56:24.047Z,96.35
2018-12-11T18:59:27.853Z,96.26
2018-12-11T19:02:31.407Z,96.61
2018-12-11T19:05:35.064Z,96.50
2018-12-11T19:08:38.633Z,96.47
2018-12-11T19:11:42.170Z,97.11
2018-12-11T19:14:45.823Z,96.82
2018-12-11T19:17:49.323Z,96.64
2018-12-11T19:20:53.197Z,96.29
2018-12-11T19:24:01.518Z,96.09
2018-12-11T19:27:05.187Z,96.18
2018-12-11T19:30:09.077Z,96.31
2018-12-11T19:33:12.612Z,96.37
2018-12-11T19:36:16.142Z,96.36
2018-12-11T19:39:19.771Z,96.13
2018-12-11T19:42:24.094Z,96.45
2018-12-11T19:45:27.981Z,96.60
2018-12-11T19:48:31.728Z,96.92
2018-12-11T19:51:35.579Z,96.87
2018-12-11T19:54:39.151Z,96.70
2018-12-11T19:57:42.769Z,96.56
2018-12-11T20:00:46.293Z,96.50
2018-12-11T20:03:49.828Z,96.83
2018-12-11T20:06:53.385Z,96.73
2018-12-11T20:10:02.270Z,96.75
2018-12-11T20:13:06.116Z,96.83
2018-12-11T20:16:10.667Z,97.02
2018-12-11T20:19:14.238Z,97.15
2018-12-11T20:22:17.780Z,97.04
2018-12-11T20:25:21.340Z,97.08
2018-12-11T20:28:25.190Z,96.89
2018-12-11T20:31:28.684Z,96.83
2018-12-11T20:34:32.164Z,96.56
2018-12-11T20:37:35.700Z,96.75
2018-12-11T20:40:39.246Z,96.82
2018-12-11T20:43:42.838Z,96.46
2018-12-11T20:46:46.340Z,96.24
2018-12-11T20:49:49.835Z,96.66
2018-12-11T20:52:53.656Z,96.96
2018-12-11T20:55:57.186Z,97.24
2018-12-11T20:59:00.646Z,97.05
2018-12-11T21:02:04.194Z,97.22
2018-12-11T21:05:07.740Z,97.44
2018-12-11T21:08:11.229Z,96.84
2018-12-11T21:11:14.988Z,96.94
2018-12-11T21:14:18.561Z,96.88
2018-12-11T21:17:22.081Z,97.32
2018-12-11T21:20:25.587Z,97.12
2018-12-11T21:23:29.844Z,96.92
2018-12-11T21:26:33.385Z,97.01
2018-12-11T21:29:37.260Z,97.38
2018-12-11T21:32:41.675Z,97.32
2018-12-11T21:35:45.320Z,97.64
2018-12-11T21:38:49.985Z,97.74
2018-12-11T21:41:53.449Z,97.57
2018-12-11T21:44:57.036Z,97.48
2018-12-11T21:48:00.555Z,97.50
2018-12-11T21:51:04.186Z,97.04
2018-12-11T21:54:07.745Z,97.50
2018-12-11T21:57:11.280Z,97.18
2018-12-11T22:00:14.761Z,97.25
2018-12-11T22:03:18.646Z,97.79
2018-12-11T22:06:22.676Z,97.95
2018-12-11T22:09:26.355Z,98.30
2018-12-11T22:12:30.234Z,98.20
2018-12-11T22:15:33.739Z,98.17
2018-12-11T22:18:37.295Z,98.37
2018-12-11T22:21:40.829Z,98.69
2018-12-11T22:24:44.444Z,98.85
2018-12-11T22:27:47.961Z,98.63
2018-12-11T22:30:51.445Z,98.83
2018-12-11T22:33:54.916Z,98.87
2018-12-11T22:36:58.450Z,98.98
2018-12-11T22:40:02.072Z,98.94
2018-12-11T22:43:05.606Z,98.84
2018-12-11T22:46:09.306Z,98.72
2018-12-11T22:49:12.750Z,98.83
2018-12-11T22:52:16.299Z,99.14
2018-12-11T22:55:19.790Z,99.12
2018-12-11T22:58:23.289Z,99.37
2018-12-11T23:01:26.814Z,99.34
2018-12-11T23:04:30.435Z,99.40
2018-12-11T23:07:33.908Z,99.43
2018-12-11T23:10:37.394Z,99.27
2018-12-11T23:13:40.903Z,99.34
2018-12-11T23:16:44.503Z,99.36
2018-12-11T23:19:47.988Z,99.44
2018-12-11T23:22:51.615Z,99.19
2018-12-11T23:25:55.478Z,99.24
2018-12-11T23:28:58.994Z,99.05
2018-12-11T23:32:02.634Z,98.98
2018-12-11T23:35:06.480Z,99.06
2018-12-11T23:38:09.945Z,98.93
2018-12-11T23:41:13.523Z,99.14
2018-12-11T23:44:17.021Z,99.13
2018-12-11T23:47:20.613Z,99.31
2018-12-11T23:50:24.155Z,99.28
2018-12-11T23:53:28.233Z,99.27
2018-12-11T23:56:31.758Z,99.01
2018-12-11T23:59:35.399Z,99.14
